createdAt,value
2023-04-07T00:00:00.068Z,75.20
2023-04-07T00:02:29.189Z,75.20
2023-04-07T00:04:58.662Z,75.30
2023-04-07T00:07:27.445Z,75.20
2023-04-07T00:09:55.762Z,75.40
2023-04-07T00:12:23.958Z,75.20
2023-04-07T00:14:54.362Z,75.30
2023-04-07T00:17:22.763Z,75.50
2023-04-07T00:19:51.752Z,75.50
2023-04-07T00:22:19.943Z,75.40
2023-04-07T00:24:48.149Z,75.60
2023-04-07T00:27:16.377Z,75.50
2023-04-07T00:29:46.959Z,75.40
2023-04-07T00:32:16.552Z,75.60
2023-04-07T00:34:44.754Z,75.70
2023-04-07T00:37:13.463Z,75.70
2023-04-07T00:39:41.683Z,75.80
2023-04-07T00:42:10.757Z,75.90
2023-04-07T00:44:38.956Z,75.90
2023-04-07T00:47:07.873Z,76.00
2023-04-07T00:49:38.555Z,76.10
2023-04-07T00:52:08.090Z,76.10
2023-04-07T00:54:36.288Z,76.20
2023-04-07T00:57:04.838Z,76.30
2023-04-07T00:59:33.060Z,76.30
2023-04-07T01:02:07.347Z,76.20
2023-04-07T01:04:45.117Z,76.40
2023-04-07T01:07:19.069Z,76.20
2023-04-07T01:10:00.536Z,76.30
2023-04-07T01:12:37.642Z,76.30
2023-04-07T01:15:11.533Z,76.40
2023-04-07T01:17:50.546Z,76.50
2023-04-07T01:20:24.479Z,76.40
2023-04-07T01:23:03.663Z,76.40
2023-04-07T01:26:01.635Z,76.40
2023-04-07T01:28:51.250Z,76.60
2023-04-07T01:31:22.030Z,76.60
2023-04-07T01:33:52.586Z,76.40
2023-04-07T01:36:22.389Z,76.50
2023-04-07T01:38:53.366Z,76.60
2023-04-07T01:41:23.008Z,76.50
2023-04-07T01:43:52.544Z,76.50
2023-04-07T01:46:22.961Z,76.70
2023-04-07T01:48:52.670Z,76.80
2023-04-07T01:51:23.703Z,76.80
2023-04-07T01:53:53.598Z,76.80
2023-04-07T01:56:22.137Z,76.80
2023-04-07T01:58:53.304Z,76.90
2023-04-07T02:01:26.233Z,76.90
2023-04-07T02:03:58.316Z,76.80
2023-04-07T02:06:33.217Z,76.90
2023-04-07T02:09:10.781Z,77.10
2023-04-07T02:11:41.125Z,77.00
2023-04-07T02:14:11.376Z,77.00
2023-04-07T02:16:58.320Z,77.10
2023-04-07T02:19:27.711Z,77.30
2023-04-07T02:21:56.620Z,77.30
2023-04-07T02:24:25.151Z,77.30
2023-04-07T02:26:54.153Z,77.50
2023-04-07T02:29:23.061Z,77.40
2023-04-07T02:31:51.508Z,77.30
2023-04-07T02:34:21.600Z,77.60
2023-04-07T02:36:49.868Z,77.50
2023-04-07T02:39:18.841Z,77.50
2023-04-07T02:41:47.136Z,77.60
2023-04-07T02:44:15.814Z,77.80
2023-04-07T02:46:44.440Z,77.80
2023-04-07T02:49:12.626Z,77.90
2023-04-07T02:51:42.650Z,77.90
2023-04-07T02:54:10.804Z,78.00
2023-04-07T02:56:39.410Z,78.00
2023-04-07T02:59:08.057Z,78.20
2023-04-07T03:01:41.637Z,78.20
2023-04-07T03:04:10.510Z,78.20
2023-04-07T03:06:39.205Z,78.30
2023-04-07T03:09:14.188Z,78.30
2023-04-07T03:11:42.721Z,78.40
2023-04-07T03:14:11.731Z,78.40
2023-04-07T03:16:47.723Z,78.40
2023-04-07T03:19:17.440Z,78.40
2023-04-07T03:21:50.272Z,78.50
2023-04-07T03:24:20.160Z,78.50
2023-04-07T03:26:49.095Z,78.60
2023-04-07T03:29:37.475Z,78.70
2023-04-07T03:32:08.574Z,78.70
2023-04-07T03:34:37.221Z,78.80
2023-04-07T03:37:05.939Z,78.70
2023-04-07T03:39:40.087Z,78.80
2023-04-07T03:42:22.452Z,78.90
2023-04-07T03:44:53.448Z,78.90
2023-04-07T03:47:22.743Z,79.30
2023-04-07T03:49:57.449Z,79.10
2023-04-07T03:52:26.252Z,79.30
2023-04-07T03:55:02.487Z,79.40
2023-04-07T03:57:33.446Z,79.60
2023-04-07T04:00:04.115Z,79.60
2023-04-07T04:02:44.543Z,79.70
2023-04-07T04:05:18.069Z,79.90
2023-04-07T04:07:46.956Z,79.80
2023-04-07T04:10:17.286Z,80.00
2023-04-07T04:12:50.618Z,80.10
2023-04-07T04:15:19.813Z,80.10
2023-04-07T04:17:49.440Z,80.10
2023-04-07T04:20:18.221Z,80.30
2023-04-07T04:22:52.092Z,80.40
2023-04-07T04:25:22.616Z,80.40
2023-04-07T04:27:55.068Z,80.40
2023-04-07T04:30:26.502Z,80.60
2023-04-07T04:33:03.244Z,80.80
2023-04-07T04:35:51.878Z,80.80
2023-04-07T04:38:21.920Z,80.70
2023-04-07T04:41:07.973Z,80.80
2023-04-07T04:43:36.590Z,80.80
2023-04-07T04:46:06.577Z,80.90
2023-04-07T04:48:39.777Z,80.90
2023-04-07T04:51:09.278Z,81.00
2023-04-07T04:53:39.626Z,80.80
2023-04-07T04:56:10.542Z,80.90
2023-04-07T04:58:47.074Z,81.00
2023-04-07T05:01:40.016Z,81.10
2023-04-07T05:04:12.049Z,81.20
2023-04-07T05:06:46.675Z,81.30
2023-04-07T05:09:18.393Z,81.40
2023-04-07T05:11:50.365Z,81.30
2023-04-07T05:14:19.351Z,81.40
2023-04-07T05:16:54.456Z,81.50
2023-04-07T05:19:29.685Z,81.50
2023-04-07T05:22:03.455Z,81.60
2023-04-07T05:24:36.721Z,81.70
2023-04-07T05:27:06.905Z,81.70
2023-04-07T05:29:36.268Z,81.70
2023-04-07T05:32:07.073Z,81.60
2023-04-07T05:34:35.706Z,81.70
2023-04-07T05:37:04.751Z,81.70
2023-04-07T05:39:33.797Z,82.00
2023-04-07T05:42:04.016Z,82.10
2023-04-07T05:44:34.309Z,82.10
2023-04-07T05:47:05.792Z,82.20
2023-04-07T05:49:34.690Z,82.20
2023-04-07T05:52:07.060Z,82.20
2023-04-07T05:54:42.147Z,82.20
2023-04-07T05:57:12.777Z,82.30
2023-04-07T05:59:47.413Z,82.40
2023-04-07T06:02:16.126Z,82.30
2023-04-07T06:04:47.708Z,82.40
2023-04-07T06:07:18.901Z,82.50
2023-04-07T06:09:47.879Z,82.70
2023-04-07T06:12:17.056Z,82.80
2023-04-07T06:14:52.985Z,82.60
2023-04-07T06:17:21.485Z,82.70
2023-04-07T06:19:50.104Z,82.70
2023-04-07T06:22:18.628Z,82.70
2023-04-07T06:24:46.875Z,81.90
2023-04-07T06:27:15.431Z,81.80
2023-04-07T06:29:44.038Z,81.90
2023-04-07T06:32:13.730Z,81.90
2023-04-07T06:34:42.849Z,82.30
2023-04-07T06:37:11.187Z,82.20
2023-04-07T06:39:40.505Z,81.90
2023-04-07T06:42:09.003Z,81.20
2023-04-07T06:44:41.456Z,80.60
2023-04-07T06:47:09.669Z,80.40
2023-04-07T06:49:39.366Z,80.00
2023-04-07T06:52:07.580Z,80.40
2023-04-07T06:54:35.767Z,80.50
2023-04-07T06:57:04.288Z,80.60
2023-04-07T06:59:32.447Z,80.10
2023-04-07T07:02:01.094Z,80.10
2023-04-07T07:04:29.422Z,79.40
2023-04-07T07:06:59.021Z,78.90
2023-04-07T07:09:27.666Z,79.10
2023-04-07T07:11:56.267Z,78.90
2023-04-07T07:14:24.682Z,78.20
2023-04-07T07:16:53.441Z,78.60
2023-04-07T07:19:21.598Z,78.60
2023-04-07T07:21:50.445Z,78.20
2023-04-07T07:24:19.977Z,78.50
2023-04-07T07:26:48.567Z,79.00
2023-04-07T07:29:17.016Z,79.50
2023-04-07T07:31:45.718Z,79.60
2023-04-07T07:34:13.856Z,79.70
2023-04-07T07:36:42.637Z,79.70
2023-04-07T07:39:11.115Z,78.90
2023-04-07T07:41:41.855Z,78.30
2023-04-07T07:44:10.184Z,77.80
2023-04-07T07:46:38.733Z,77.40
2023-04-07T07:49:07.047Z,76.60
2023-04-07T07:51:35.976Z,75.80
2023-04-07T07:54:04.264Z,75.30
2023-04-07T07:56:33.159Z,75.20
2023-04-07T07:59:02.969Z,75.30
2023-04-07T08:01:31.595Z,74.80
2023-04-07T08:03:59.933Z,74.60
2023-04-07T08:06:29.606Z,74.60
2023-04-07T08:08:57.974Z,75.70
2023-04-07T08:11:26.703Z,76.10
2023-04-07T08:13:55.653Z,75.60
2023-04-07T08:16:26.865Z,76.10
2023-04-07T08:18:55.590Z,76.90
2023-04-07T08:21:23.846Z,77.40
2023-04-07T08:23:52.406Z,77.20
2023-04-07T08:26:21.257Z,75.90
2023-04-07T08:28:51.620Z,75.90
2023-04-07T08:31:20.622Z,76.30
2023-04-07T08:33:54.143Z,75.80
2023-04-07T08:36:22.473Z,75.30
2023-04-07T08:38:51.389Z,74.00
2023-04-07T08:41:23.143Z,74.30
2023-04-07T08:43:53.106Z,74.00
2023-04-07T08:46:24.456Z,73.60
2023-04-07T08:48:56.854Z,73.30
2023-04-07T08:51:30.028Z,72.70
2023-04-07T08:54:06.270Z,73.00
2023-04-07T08:56:35.361Z,72.40
2023-04-07T08:59:03.849Z,72.20
2023-04-07T09:01:32.459Z,72.00
2023-04-07T09:04:04.031Z,71.10
2023-04-07T09:06:33.617Z,70.40
2023-04-07T09:09:03.076Z,70.70
2023-04-07T09:11:32.171Z,70.90
2023-04-07T09:14:01.765Z,70.60
2023-04-07T09:16:31.193Z,70.80
2023-04-07T09:19:00.195Z,69.90
2023-04-07T09:21:49.699Z,70.50
2023-04-07T09:24:26.178Z,71.20
2023-04-07T09:27:11.291Z,70.00
2023-04-07T09:29:41.425Z,69.60
2023-04-07T09:32:10.167Z,68.80
2023-04-07T09:34:41.031Z,69.40
2023-04-07T09:37:23.558Z,69.00
2023-04-07T09:39:54.549Z,69.50
2023-04-07T09:42:23.308Z,68.00
2023-04-07T09:44:52.616Z,67.90
2023-04-07T09:47:29.124Z,68.10
2023-04-07T09:49:59.491Z,68.40
2023-04-07T09:52:53.169Z,68.10
2023-04-07T09:55:23.641Z,68.50
2023-04-07T09:57:52.608Z,67.30
2023-04-07T10:00:21.304Z,67.60
2023-04-07T10:02:51.321Z,66.90
2023-04-07T10:05:22.148Z,67.00
2023-04-07T10:07:52.608Z,67.20
2023-04-07T10:10:21.448Z,66.90
2023-04-07T10:12:51.391Z,65.90
2023-04-07T10:15:20.084Z,65.80
2023-04-07T10:17:50.358Z,66.10
2023-04-07T10:20:21.073Z,65.90
2023-04-07T10:22:54.300Z,66.60
2023-04-07T10:25:25.577Z,67.10
2023-04-07T10:27:59.473Z,66.60
2023-04-07T10:30:29.951Z,66.60
2023-04-07T10:32:58.980Z,66.70
2023-04-07T10:35:28.431Z,65.90
2023-04-07T10:38:16.294Z,64.40
2023-04-07T10:40:44.702Z,64.80
2023-04-07T10:43:13.778Z,64.00
2023-04-07T10:45:56.663Z,65.10
2023-04-07T10:48:25.034Z,65.30
2023-04-07T10:51:16.114Z,65.00
2023-04-07T10:54:26.783Z,65.50
2023-04-07T10:57:14.908Z,65.00
2023-04-07T11:00:17.720Z,64.70
2023-04-07T11:02:46.327Z,64.90
2023-04-07T11:05:32.471Z,63.80
2023-04-07T11:08:05.583Z,64.20
2023-04-07T11:10:33.847Z,64.00
2023-04-07T11:13:08.564Z,63.60
2023-04-07T11:15:40.283Z,64.20
2023-04-07T11:18:12.282Z,64.60
2023-04-07T11:20:45.887Z,65.40
2023-04-07T11:23:15.286Z,64.50
2023-04-07T11:25:45.539Z,63.90
2023-04-07T11:28:16.057Z,64.80
2023-04-07T11:30:51.701Z,64.70
2023-04-07T11:33:22.115Z,65.00
2023-04-07T11:35:52.942Z,65.30
2023-04-07T11:38:23.976Z,64.80
2023-04-07T11:40:53.900Z,64.40
2023-04-07T11:43:25.379Z,64.10
2023-04-07T11:46:11.277Z,64.30
2023-04-07T11:48:41.911Z,64.50
2023-04-07T11:51:18.097Z,63.90
2023-04-07T11:53:47.469Z,63.70
2023-04-07T11:56:18.666Z,63.10
2023-04-07T11:58:52.878Z,62.40
2023-04-07T12:01:22.360Z,62.60
2023-04-07T12:03:59.450Z,62.40
2023-04-07T12:06:30.434Z,63.10
2023-04-07T12:08:59.092Z,62.90
2023-04-07T12:11:27.870Z,63.00
2023-04-07T12:13:57.778Z,63.20
2023-04-07T12:16:26.911Z,62.50
2023-04-07T12:18:55.228Z,62.10
2023-04-07T12:21:24.101Z,61.60
2023-04-07T12:23:52.768Z,62.00
2023-04-07T12:26:23.297Z,62.30
2023-04-07T12:28:51.767Z,63.20
2023-04-07T12:31:21.725Z,62.50
2023-04-07T12:33:50.478Z,62.40
2023-04-07T12:36:18.866Z,62.40
2023-04-07T12:38:47.534Z,62.30
2023-04-07T12:41:15.816Z,61.80
2023-04-07T12:43:45.680Z,61.60
2023-04-07T12:46:15.244Z,62.00
2023-04-07T12:48:45.901Z,62.20
2023-04-07T12:51:14.103Z,61.80
2023-04-07T12:53:42.500Z,61.30
2023-04-07T12:56:11.243Z,61.40
2023-04-07T12:58:40.237Z,61.40
2023-04-07T13:01:08.527Z,61.40
2023-04-07T13:03:37.667Z,60.90
2023-04-07T13:06:07.782Z,60.70
2023-04-07T13:08:36.308Z,60.80
2023-04-07T13:11:05.436Z,59.90
2023-04-07T13:13:34.408Z,59.50
2023-04-07T13:16:02.982Z,59.70
2023-04-07T13:18:31.610Z,59.30
2023-04-07T13:21:30.624Z,59.10
2023-04-07T13:23:51.620Z,59.60
2023-04-07T13:26:19.903Z,59.50
2023-04-07T13:28:48.677Z,59.30
2023-04-07T13:31:18.107Z,59.40
2023-04-07T13:33:47.045Z,59.70
2023-04-07T13:36:15.845Z,59.90
2023-04-07T13:38:44.109Z,60.80
2023-04-07T13:41:13.942Z,60.30
2023-04-07T13:43:42.584Z,60.10
2023-04-07T13:46:27.371Z,59.50
2023-04-07T13:48:57.005Z,59.50
2023-04-07T13:51:25.718Z,58.90
2023-04-07T13:53:57.153Z,58.50
2023-04-07T13:56:27.064Z,58.30
2023-04-07T13:58:56.042Z,57.30
2023-04-07T14:01:24.361Z,57.70
2023-04-07T14:03:53.606Z,58.40
2023-04-07T14:06:22.942Z,58.70
2023-04-07T14:08:52.029Z,58.80
2023-04-07T14:11:22.188Z,59.00
2023-04-07T14:13:53.543Z,58.70
2023-04-07T14:16:22.878Z,59.10
2023-04-07T14:18:51.611Z,59.50
2023-04-07T14:21:19.985Z,59.20
2023-04-07T14:23:48.173Z,59.90
2023-04-07T14:26:16.873Z,59.90
2023-04-07T14:28:45.170Z,60.10
2023-04-07T14:31:15.852Z,60.20
2023-04-07T14:33:44.681Z,60.40
2023-04-07T14:36:15.379Z,60.00
2023-04-07T14:38:43.984Z,60.30
2023-04-07T14:41:13.131Z,60.20
2023-04-07T14:43:41.418Z,60.60
2023-04-07T14:46:10.143Z,60.60
2023-04-07T14:48:40.090Z,60.90
2023-04-07T14:51:12.977Z,60.70
2023-04-07T14:53:43.333Z,60.70
2023-04-07T14:56:11.944Z,60.90
2023-04-07T14:58:40.729Z,60.00
2023-04-07T15:01:09.372Z,60.10
2023-04-07T15:03:39.344Z,60.10
2023-04-07T15:06:09.929Z,59.90
2023-04-07T15:08:38.437Z,60.20
2023-04-07T15:11:07.113Z,60.30
2023-04-07T15:13:36.211Z,60.10
2023-04-07T15:16:08.842Z,60.00
2023-04-07T15:18:37.205Z,59.90
2023-04-07T15:21:07.197Z,60.20
2023-04-07T15:23:37.661Z,60.40
2023-04-07T15:26:06.440Z,60.30
2023-04-07T15:28:34.880Z,60.40
2023-04-07T15:31:03.256Z,60.40
2023-04-07T15:33:31.670Z,60.20
2023-04-07T15:36:01.687Z,60.30
2023-04-07T15:38:31.560Z,60.20
2023-04-07T15:41:00.055Z,60.40
2023-04-07T15:43:28.764Z,60.40
2023-04-07T15:45:57.346Z,60.20
2023-04-07T15:48:25.950Z,60.30
2023-04-07T15:50:54.948Z,60.20
2023-04-07T15:53:23.636Z,59.90
2023-04-07T15:55:53.560Z,59.90
2023-04-07T15:58:22.050Z,59.80
2023-04-07T16:00:50.440Z,59.70
2023-04-07T16:03:19.152Z,59.60
2023-04-07T16:05:47.528Z,59.70
2023-04-07T16:08:16.076Z,59.70
2023-04-07T16:10:44.371Z,59.80
2023-04-07T16:13:14.367Z,59.70
2023-04-07T16:15:42.722Z,59.90
2023-04-07T16:18:12.197Z,59.90
2023-04-07T16:20:40.667Z,60.00
2023-04-07T16:23:10.783Z,60.20
2023-04-07T16:25:39.097Z,60.30
2023-04-07T16:28:07.767Z,60.30
2023-04-07T16:30:37.332Z,60.50
2023-04-07T16:33:05.797Z,60.90
2023-04-07T16:35:34.561Z,61.00
2023-04-07T16:38:06.136Z,61.10
2023-04-07T16:40:34.875Z,61.20
2023-04-07T16:43:03.659Z,61.50
2023-04-07T16:45:31.839Z,61.60
2023-04-07T16:48:03.301Z,61.80
2023-04-07T16:50:31.894Z,62.00
2023-04-07T16:53:00.084Z,62.10
2023-04-07T16:55:28.609Z,62.40
2023-04-07T16:57:56.992Z,62.40
2023-04-07T17:00:30.730Z,62.50
2023-04-07T17:02:59.115Z,62.70
2023-04-07T17:05:29.534Z,62.70
2023-04-07T17:07:57.783Z,63.00
2023-04-07T17:10:26.500Z,63.00
2023-04-07T17:12:56.258Z,63.20
2023-04-07T17:15:24.975Z,63.30
2023-04-07T17:17:53.256Z,63.60
2023-04-07T17:20:23.044Z,63.50
2023-04-07T17:22:52.745Z,63.50
2023-04-07T17:25:21.270Z,63.70
2023-04-07T17:27:49.465Z,63.80
2023-04-07T17:30:18.634Z,63.70
2023-04-07T17:32:47.433Z,63.90
2023-04-07T17:35:15.982Z,64.00
2023-04-07T17:37:44.193Z,63.90
2023-04-07T17:40:14.933Z,63.90
2023-04-07T17:42:43.587Z,64.00
2023-04-07T17:45:12.994Z,64.10
2023-04-07T17:47:41.394Z,64.30
2023-04-07T17:50:11.446Z,64.30
2023-04-07T17:52:39.927Z,64.30
2023-04-07T17:55:09.237Z,64.40
2023-04-07T17:57:39.299Z,64.40
2023-04-07T18:00:09.064Z,64.40
2023-04-07T18:02:44.123Z,64.50
2023-04-07T18:05:12.862Z,64.40
2023-04-07T18:07:41.826Z,64.60
2023-04-07T18:10:11.154Z,64.70
2023-04-07T18:12:41.585Z,64.90
2023-04-07T18:15:10.812Z,65.10
2023-04-07T18:17:39.463Z,65.30
2023-04-07T18:20:08.791Z,65.40
2023-04-07T18:22:38.438Z,65.60
2023-04-07T18:25:07.419Z,65.80
2023-04-07T18:27:35.891Z,65.90
2023-04-07T18:30:06.400Z,66.10
2023-04-07T18:32:34.973Z,66.20
2023-04-07T18:35:03.252Z,66.30
2023-04-07T18:37:32.201Z,66.40
2023-04-07T18:40:00.500Z,66.60
2023-04-07T18:42:29.036Z,66.80
2023-04-07T18:44:57.236Z,67.10
2023-04-07T18:47:27.397Z,67.30
2023-04-07T18:49:58.005Z,67.50
2023-04-07T18:52:27.726Z,67.80
2023-04-07T18:54:55.932Z,68.30
2023-04-07T18:57:24.382Z,68.70
2023-04-07T18:59:52.934Z,69.10
2023-04-07T19:02:21.274Z,69.40
2023-04-07T19:04:51.412Z,69.80
2023-04-07T19:07:19.625Z,70.20
2023-04-07T19:09:51.255Z,70.50
2023-04-07T19:12:19.424Z,71.00
2023-04-07T19:14:48.028Z,71.40
2023-04-07T19:17:16.347Z,71.80
2023-04-07T19:19:44.838Z,72.30
2023-04-07T19:22:14.424Z,72.50
2023-04-07T19:24:42.985Z,73.00
2023-04-07T19:27:12.080Z,73.20
2023-04-07T19:29:40.673Z,73.80
2023-04-07T19:32:08.950Z,74.30
2023-04-07T19:34:37.351Z,74.90
2023-04-07T19:37:05.519Z,75.70
2023-04-07T19:39:35.781Z,76.30
2023-04-07T19:42:03.979Z,76.80
2023-04-07T19:44:32.632Z,77.40
2023-04-07T19:47:00.800Z,78.40
2023-04-07T19:49:29.717Z,79.70
2023-04-07T19:52:00.636Z,80.80
2023-04-07T19:54:29.197Z,81.70
2023-04-07T19:56:59.114Z,82.30
2023-04-07T19:59:27.970Z,82.40
2023-04-07T20:01:56.718Z,82.70
2023-04-07T20:04:25.054Z,82.70
2023-04-07T20:06:53.288Z,82.70
2023-04-07T20:09:23.116Z,82.90
2023-04-07T20:11:51.353Z,83.20
2023-04-07T20:14:21.922Z,83.60
2023-04-07T20:16:50.202Z,83.70
2023-04-07T20:19:18.685Z,84.00
2023-04-07T20:21:46.903Z,84.90
2023-04-07T20:24:15.418Z,86.60
2023-04-07T20:26:43.819Z,88.30
2023-04-07T20:29:12.722Z,89.90
2023-04-07T20:31:42.324Z,90.60
2023-04-07T20:34:10.907Z,91.40
2023-04-07T20:36:39.126Z,92.20
2023-04-07T20:39:07.656Z,92.90
2023-04-07T20:41:36.405Z,93.60
2023-04-07T20:44:04.713Z,94.10
2023-04-07T20:46:34.417Z,94.80
2023-04-07T20:49:07.798Z,95.50
2023-04-07T20:51:37.040Z,96.40
2023-04-07T20:54:05.986Z,97.00
2023-04-07T20:56:34.671Z,97.70
2023-04-07T20:59:03.665Z,98.60
2023-04-07T21:01:31.926Z,99.10
2023-04-07T21:04:02.946Z,99.70
2023-04-07T21:06:32.655Z,99.90
2023-04-07T21:09:01.832Z,99.90
2023-04-07T21:11:30.018Z,99.90
2023-04-07T21:13:58.498Z,99.90
2023-04-07T21:16:26.695Z,99.90
2023-04-07T21:18:55.467Z,99.90
2023-04-07T21:21:23.965Z,99.90
2023-04-07T21:23:53.973Z,99.90
2023-04-07T21:26:22.282Z,99.90
2023-04-07T21:28:52.239Z,99.90
2023-04-07T21:31:24.130Z,99.90
2023-04-07T21:33:53.849Z,99.90
2023-04-07T21:36:22.105Z,99.90
2023-04-07T21:38:51.978Z,99.90
2023-04-07T21:41:22.350Z,99.90
2023-04-07T21:43:50.930Z,99.90
2023-04-07T21:46:19.228Z,99.90
2023-04-07T21:48:48.348Z,99.90
2023-04-07T21:51:17.678Z,99.90
2023-04-07T21:53:45.885Z,99.90
2023-04-07T21:56:14.546Z,99.90
2023-04-07T21:58:46.479Z,99.90
2023-04-07T22:01:15.833Z,99.90
2023-04-07T22:03:44.738Z,99.90
2023-04-07T22:06:14.530Z,99.90
2023-04-07T22:08:48.944Z,99.90
2023-04-07T22:11:28.925Z,99.90
2023-04-07T22:13:58.714Z,99.90
2023-04-07T22:16:27.507Z,99.90
2023-04-07T22:18:55.810Z,99.90
2023-04-07T22:21:25.673Z,99.90
2023-04-07T22:23:53.991Z,99.90
2023-04-07T22:26:22.952Z,99.90
2023-04-07T22:28:51.411Z,99.90
2023-04-07T22:31:22.031Z,99.90
2023-04-07T22:33:50.426Z,99.90
2023-04-07T22:36:19.009Z,99.90
2023-04-07T22:38:47.879Z,99.90
2023-04-07T22:41:16.273Z,99.90
2023-04-07T22:43:44.521Z,99.90
2023-04-07T22:46:12.739Z,99.90
2023-04-07T22:48:42.631Z,99.90
2023-04-07T22:51:11.126Z,99.90
2023-04-07T22:53:39.610Z,99.90
2023-04-07T22:56:08.868Z,99.90
2023-04-07T22:58:37.475Z,99.90
2023-04-07T23:01:05.844Z,99.90
2023-04-07T23:03:34.525Z,99.90
2023-04-07T23:06:04.333Z,99.90
2023-04-07T23:08:33.136Z,99.90
2023-04-07T23:11:01.339Z,99.90
2023-04-07T23:13:29.614Z,99.90
2023-04-07T23:15:58.133Z,99.90
2023-04-07T23:18:26.688Z,99.90
2023-04-07T23:20:54.880Z,99.90
2023-04-07T23:23:24.771Z,99.90
2023-04-07T23:25:53.312Z,99.90
2023-04-07T23:28:21.681Z,99.90
2023-04-07T23:30:49.836Z,99.90
2023-04-07T23:33:18.478Z,99.90
2023-04-07T23:35:46.681Z,99.90
2023-04-07T23:38:15.346Z,99.90
2023-04-07T23:40:44.932Z,99.90
2023-04-07T23:43:13.444Z,99.90
2023-04-07T23:45:41.683Z,99.90
2023-04-07T23:48:10.625Z,99.90
2023-04-07T23:50:39.166Z,99.90
2023-04-07T23:53:07.321Z,99.90
2023-04-07T23:55:35.504Z,99.90
2023-04-07T23:58:06.852Z,99.90
